Terminal Aerodrome Forecast
Issued by NWS

Home | Current Version | Previous Version | Text Only | Print | Product List | Glossary On
Versions: 1 2 3 4 5 6 7 8 9 10 11 12 13 14 15 16 17 18 19
000
FTUS45 KBYZ 202326
TAFLVM
TAF
KLVM 202326Z 2100/2124 22030G42KT P6SM VCSH FEW080 BKN150
     FM211100 21020G30KT 5SM -RA SCT030 BKN050
     FM211700 24040G50KT P6SM VCSH SCT030 BKN050=

USA.gov is the U.S. government's official web portal to all federal, state and local government web resources and services.